createdAt,value
2023-03-29T00:02:20.851Z,29.50
2023-03-29T00:04:47.980Z,29.70
2023-03-29T00:07:15.654Z,29.80
2023-03-29T00:09:43.038Z,29.70
2023-03-29T00:12:11.973Z,29.90
2023-03-29T00:14:39.060Z,29.70
2023-03-29T00:17:06.703Z,29.40
2023-03-29T00:19:37.017Z,29.40
2023-03-29T00:22:06.308Z,29.20
2023-03-29T00:24:33.396Z,29.50
2023-03-29T00:27:01.310Z,29.10
2023-03-29T00:29:28.908Z,29.30
2023-03-29T00:31:56.205Z,29.50
2023-03-29T00:34:25.007Z,29.60
2023-03-29T00:36:53.218Z,29.70
2023-03-29T00:39:21.997Z,29.50
2023-03-29T00:41:51.692Z,29.00
2023-03-29T00:44:56.666Z,28.00
2023-03-29T00:47:26.653Z,27.60
2023-03-29T00:49:55.696Z,27.20
2023-03-29T00:52:22.871Z,27.70
2023-03-29T00:54:55.713Z,28.20
2023-03-29T00:57:26.469Z,28.60
2023-03-29T00:59:56.542Z,28.90
2023-03-29T01:02:28.288Z,28.30
2023-03-29T01:05:29.635Z,28.80
2023-03-29T01:08:05.025Z,28.80
2023-03-29T01:10:42.110Z,29.20
2023-03-29T01:13:13.089Z,29.60
2023-03-29T01:15:44.291Z,29.40
2023-03-29T01:18:12.031Z,28.60
2023-03-29T01:21:03.123Z,28.10
2023-03-29T01:24:09.893Z,28.20
2023-03-29T01:27:00.739Z,28.10
2023-03-29T01:29:58.784Z,28.80
2023-03-29T01:32:43.091Z,28.80
2023-03-29T01:35:22.141Z,28.50
2023-03-29T01:37:58.876Z,28.90
2023-03-29T01:40:28.513Z,29.20
2023-03-29T01:43:28.031Z,28.90
2023-03-29T01:46:03.620Z,28.90
2023-03-29T01:49:11.696Z,28.60
2023-03-29T01:52:15.493Z,28.60
2023-03-29T01:54:50.582Z,28.40
2023-03-29T01:57:19.934Z,28.30
2023-03-29T01:59:48.108Z,29.30
2023-03-29T02:02:17.827Z,29.40
2023-03-29T02:04:52.464Z,29.40
2023-03-29T02:07:23.454Z,29.60
2023-03-29T02:09:52.804Z,29.90
2023-03-29T02:12:20.787Z,29.70
2023-03-29T02:14:47.853Z,29.80
2023-03-29T02:17:21.207Z,29.50
2023-03-29T02:20:14.822Z,29.30
2023-03-29T02:22:50.252Z,29.80
2023-03-29T02:25:18.826Z,30.10
2023-03-29T02:27:46.456Z,30.20
2023-03-29T02:30:17.261Z,30.40
2023-03-29T02:33:05.105Z,30.30
2023-03-29T02:35:36.859Z,30.50
2023-03-29T02:38:08.974Z,30.00
2023-03-29T02:40:38.990Z,30.10
2023-03-29T02:43:07.776Z,30.30
2023-03-29T02:45:36.989Z,30.30
2023-03-29T02:48:09.675Z,30.00
2023-03-29T02:50:39.663Z,29.80
2023-03-29T02:53:13.360Z,30.00
2023-03-29T02:55:40.799Z,30.00
2023-03-29T02:58:09.029Z,29.70
2023-03-29T03:00:39.557Z,30.00
2023-03-29T03:03:08.217Z,29.60
2023-03-29T03:05:36.844Z,29.80
2023-03-29T03:08:05.295Z,29.80
2023-03-29T03:10:33.881Z,29.60
2023-03-29T03:13:01.405Z,29.00
2023-03-29T03:15:28.468Z,29.20
2023-03-29T03:17:56.310Z,28.70
2023-03-29T03:20:23.730Z,28.50
2023-03-29T03:22:50.891Z,28.30
2023-03-29T03:25:20.983Z,28.60
2023-03-29T03:27:49.835Z,28.70
2023-03-29T03:30:17.395Z,28.80
2023-03-29T03:32:44.950Z,28.40
2023-03-29T03:35:12.899Z,28.30
2023-03-29T03:37:40.714Z,28.00
2023-03-29T03:40:09.281Z,28.00
2023-03-29T03:42:36.381Z,28.40
2023-03-29T03:45:03.581Z,28.50
2023-03-29T03:47:30.921Z,28.40
2023-03-29T03:49:58.436Z,28.50
2023-03-29T03:52:25.413Z,28.50
2023-03-29T03:54:52.534Z,28.50
2023-03-29T03:57:19.754Z,28.80
2023-03-29T03:59:46.805Z,27.90
2023-03-29T04:02:13.800Z,28.70
2023-03-29T04:04:41.487Z,29.20
2023-03-29T04:07:09.714Z,29.00
2023-03-29T04:09:37.734Z,28.90
2023-03-29T04:12:05.145Z,28.30
2023-03-29T04:14:32.349Z,28.40
2023-03-29T04:16:59.339Z,27.80
2023-03-29T04:19:26.700Z,27.90
2023-03-29T04:21:53.802Z,27.50
2023-03-29T04:24:20.755Z,27.30
2023-03-29T04:26:48.643Z,26.90
2023-03-29T04:29:15.635Z,26.40
2023-03-29T04:31:42.750Z,25.60
2023-03-29T04:34:09.851Z,26.00
2023-03-29T04:36:36.952Z,26.50
2023-03-29T04:39:04.926Z,26.80
2023-03-29T04:41:32.743Z,26.90
2023-03-29T04:43:59.775Z,27.60
2023-03-29T04:46:27.075Z,28.30
2023-03-29T04:48:54.553Z,28.50
2023-03-29T04:51:22.479Z,27.70
2023-03-29T04:53:52.898Z,26.90
2023-03-29T04:56:21.004Z,27.50
2023-03-29T04:58:48.468Z,27.50
2023-03-29T05:01:15.845Z,27.90
2023-03-29T05:03:43.059Z,28.20
2023-03-29T05:06:12.183Z,28.40
2023-03-29T05:08:40.381Z,28.20
2023-03-29T05:11:10.498Z,28.10
2023-03-29T05:13:38.129Z,28.20
2023-03-29T05:16:05.691Z,28.60
2023-03-29T05:18:33.065Z,28.60
2023-03-29T05:21:00.905Z,27.70
2023-03-29T05:23:28.908Z,27.90
2023-03-29T05:25:56.030Z,26.70
2023-03-29T05:28:23.089Z,27.10
2023-03-29T05:31:02.369Z,26.90
2023-03-29T05:33:30.875Z,25.90
2023-03-29T05:36:18.971Z,26.00
2023-03-29T05:38:46.874Z,26.30
2023-03-29T05:41:16.022Z,25.10
2023-03-29T05:43:43.145Z,25.40
2023-03-29T05:46:10.594Z,24.80
2023-03-29T05:48:38.474Z,25.70
2023-03-29T05:51:05.879Z,26.30
2023-03-29T05:53:33.335Z,26.60
2023-03-29T05:56:00.299Z,27.00
2023-03-29T05:58:29.245Z,27.20
2023-03-29T06:00:56.679Z,27.50
2023-03-29T06:03:27.674Z,27.40
2023-03-29T06:05:59.423Z,26.50
2023-03-29T06:08:28.072Z,26.60
2023-03-29T06:11:05.016Z,25.90
2023-03-29T06:13:37.255Z,26.20
2023-03-29T06:16:05.897Z,26.80
2023-03-29T06:18:34.100Z,26.10
2023-03-29T06:21:04.672Z,26.40
2023-03-29T06:23:32.907Z,26.60
2023-03-29T06:26:00.334Z,27.20
2023-03-29T06:28:27.571Z,26.90
2023-03-29T06:30:56.656Z,27.40
2023-03-29T06:33:25.436Z,27.50
2023-03-29T06:35:52.804Z,27.10
2023-03-29T06:38:20.876Z,26.70
2023-03-29T06:40:48.462Z,26.30
2023-03-29T06:43:15.422Z,26.60
2023-03-29T06:45:42.800Z,27.10
2023-03-29T06:48:09.919Z,27.30
2023-03-29T06:50:37.016Z,27.20
2023-03-29T06:53:04.565Z,26.90
2023-03-29T06:55:32.156Z,27.10
2023-03-29T06:58:02.259Z,27.50
2023-03-29T07:00:30.770Z,27.10
2023-03-29T07:02:59.527Z,27.30
2023-03-29T07:05:27.647Z,28.10
2023-03-29T07:08:00.897Z,28.30
2023-03-29T07:10:32.827Z,28.40
2023-03-29T07:13:01.643Z,27.70
2023-03-29T07:15:30.036Z,27.70
2023-03-29T07:17:57.686Z,27.80
2023-03-29T07:20:27.297Z,27.60
2023-03-29T07:22:56.595Z,27.20
2023-03-29T07:25:25.842Z,27.80
2023-03-29T07:27:53.136Z,27.60
2023-03-29T07:30:23.116Z,27.40
2023-03-29T07:32:51.419Z,28.10
2023-03-29T07:35:18.973Z,28.40
2023-03-29T07:37:46.613Z,28.50
2023-03-29T07:40:16.527Z,28.50
2023-03-29T07:42:47.984Z,27.60
2023-03-29T07:45:17.175Z,28.30
2023-03-29T07:47:44.941Z,28.90
2023-03-29T07:50:15.289Z,28.20
2023-03-29T07:52:42.765Z,27.80
2023-03-29T07:55:11.719Z,26.40
2023-03-29T07:57:39.237Z,26.80
2023-03-29T08:00:16.749Z,26.70
2023-03-29T08:02:45.858Z,26.30
2023-03-29T08:05:17.579Z,27.30
2023-03-29T08:07:50.759Z,25.90
2023-03-29T08:10:19.501Z,26.50
2023-03-29T08:12:47.966Z,26.90
2023-03-29T08:15:15.794Z,26.80
2023-03-29T08:17:43.171Z,26.20
2023-03-29T08:20:13.349Z,25.90
2023-03-29T08:22:40.662Z,25.80
2023-03-29T08:25:09.130Z,25.40
2023-03-29T08:27:37.851Z,26.00
2023-03-29T08:30:10.212Z,24.40
2023-03-29T08:32:38.239Z,24.90
2023-03-29T08:35:06.849Z,24.90
2023-03-29T08:37:34.012Z,25.80
2023-03-29T08:40:02.072Z,25.60
2023-03-29T08:42:53.497Z,26.00
2023-03-29T08:45:48.419Z,25.30
2023-03-29T08:48:29.292Z,25.30
2023-03-29T08:51:06.061Z,25.40
2023-03-29T08:53:37.124Z,25.40
2023-03-29T08:56:11.901Z,25.00
2023-03-29T08:58:39.288Z,25.30
2023-03-29T09:01:09.334Z,26.10
2023-03-29T09:04:09.249Z,25.30
2023-03-29T09:06:36.709Z,24.10
2023-03-29T09:09:03.897Z,24.70
2023-03-29T09:12:02.009Z,24.40
2023-03-29T09:14:31.872Z,25.50
2023-03-29T09:17:10.308Z,25.70
2023-03-29T09:20:04.898Z,24.70
2023-03-29T09:22:53.821Z,24.50
2023-03-29T09:25:53.371Z,24.40
2023-03-29T09:28:34.735Z,23.60
2023-03-29T09:31:06.346Z,25.00
2023-03-29T09:33:44.421Z,24.80
2023-03-29T09:36:17.385Z,24.70
2023-03-29T09:38:48.193Z,23.80
2023-03-29T09:41:50.946Z,23.70
2023-03-29T09:44:30.710Z,25.20
2023-03-29T09:47:06.510Z,25.30
2023-03-29T09:49:40.230Z,25.40
2023-03-29T09:52:14.065Z,25.80
2023-03-29T09:54:41.452Z,25.50
2023-03-29T09:57:12.912Z,26.20
2023-03-29T09:59:40.580Z,26.20
2023-03-29T10:02:13.001Z,26.50
2023-03-29T10:04:42.783Z,27.00
2023-03-29T10:07:19.021Z,25.90
2023-03-29T10:09:48.428Z,25.60
2023-03-29T10:12:17.209Z,25.90
2023-03-29T10:14:48.640Z,25.40
2023-03-29T10:17:21.907Z,26.10
2023-03-29T10:19:52.167Z,25.80
2023-03-29T10:22:33.034Z,25.60
2023-03-29T10:25:00.370Z,25.80
2023-03-29T10:27:29.654Z,26.30
2023-03-29T10:30:00.183Z,27.40
2023-03-29T10:32:37.955Z,28.30
2023-03-29T10:35:20.694Z,27.80
2023-03-29T10:37:53.111Z,29.00
2023-03-29T10:40:30.921Z,28.40
2023-03-29T10:43:12.912Z,27.70
2023-03-29T10:45:41.248Z,28.30
2023-03-29T10:48:16.127Z,28.30
2023-03-29T10:50:48.635Z,28.00
2023-03-29T10:53:26.259Z,29.20
2023-03-29T10:56:11.583Z,29.30
2023-03-29T10:58:48.523Z,28.50
2023-03-29T11:01:23.865Z,28.80
2023-03-29T11:04:08.804Z,29.30
2023-03-29T11:06:47.998Z,29.80
2023-03-29T11:09:36.364Z,29.90
2023-03-29T11:12:27.512Z,30.80
2023-03-29T11:14:59.469Z,30.10
2023-03-29T11:17:55.036Z,31.30
2023-03-29T11:20:52.010Z,30.60
2023-03-29T11:23:57.643Z,30.80
2023-03-29T11:26:34.634Z,30.50
2023-03-29T11:29:27.552Z,30.00
2023-03-29T11:32:26.575Z,29.90
2023-03-29T11:35:05.344Z,30.30
2023-03-29T11:37:58.433Z,29.80
2023-03-29T11:40:36.183Z,30.30
2023-03-29T11:43:11.695Z,29.30
2023-03-29T11:45:49.319Z,28.60
2023-03-29T11:48:22.518Z,29.80
2023-03-29T11:51:04.816Z,30.20
2023-03-29T11:53:39.413Z,30.50
2023-03-29T11:56:12.255Z,30.80
2023-03-29T11:58:46.058Z,30.50
2023-03-29T12:01:31.825Z,29.70
2023-03-29T12:04:10.849Z,29.80
2023-03-29T12:06:50.759Z,29.90
2023-03-29T12:09:38.763Z,29.80
2023-03-29T12:12:19.580Z,29.10
2023-03-29T12:15:00.891Z,30.20
2023-03-29T12:17:33.361Z,30.60
2023-03-29T12:20:07.210Z,30.50
2023-03-29T12:22:34.424Z,29.90
2023-03-29T12:25:04.837Z,29.50
2023-03-29T12:27:49.893Z,29.50
2023-03-29T12:30:39.266Z,29.00
2023-03-29T12:33:43.438Z,29.00
2023-03-29T12:36:17.354Z,27.70
2023-03-29T12:38:46.269Z,27.30
2023-03-29T12:41:24.744Z,27.80
2023-03-29T12:43:52.248Z,28.00
2023-03-29T12:46:25.854Z,28.00
2023-03-29T12:49:05.846Z,27.90
2023-03-29T12:51:35.593Z,28.30
2023-03-29T12:54:13.921Z,28.90
2023-03-29T12:56:52.170Z,29.20
2023-03-29T12:59:55.168Z,29.20
2023-03-29T13:02:22.337Z,29.70
2023-03-29T13:04:57.922Z,29.80
2023-03-29T13:07:28.003Z,30.10
2023-03-29T13:10:00.258Z,30.30
2023-03-29T13:12:46.052Z,29.00
2023-03-29T13:15:17.038Z,29.30
2023-03-29T13:18:07.846Z,29.80
2023-03-29T13:20:44.215Z,29.80
2023-03-29T13:23:44.631Z,28.60
2023-03-29T13:26:27.259Z,29.00
2023-03-29T13:29:05.099Z,29.20
2023-03-29T13:31:51.654Z,29.40
2023-03-29T13:34:36.318Z,28.50
2023-03-29T13:37:41.103Z,28.20
2023-03-29T13:40:29.852Z,28.90
2023-03-29T13:42:59.015Z,29.10
2023-03-29T13:45:29.689Z,28.90
2023-03-29T13:48:30.925Z,29.40
2023-03-29T13:51:01.865Z,29.40
2023-03-29T13:53:35.055Z,29.60
2023-03-29T13:56:03.520Z,28.80
2023-03-29T13:58:46.675Z,28.10
2023-03-29T14:01:29.383Z,28.10
2023-03-29T14:03:57.668Z,28.90
2023-03-29T14:06:35.145Z,28.50
2023-03-29T14:09:07.308Z,28.60
2023-03-29T14:11:34.878Z,28.20
2023-03-29T14:14:11.253Z,27.70
2023-03-29T14:16:40.500Z,27.50
2023-03-29T14:19:21.837Z,28.20
2023-03-29T14:21:52.164Z,27.80
2023-03-29T14:24:27.245Z,27.20
2023-03-29T14:26:55.125Z,27.50
2023-03-29T14:29:24.368Z,27.60
2023-03-29T14:31:52.695Z,27.80
2023-03-29T14:34:20.315Z,28.00
2023-03-29T14:36:49.365Z,27.60
2023-03-29T14:39:18.171Z,27.50
2023-03-29T14:41:53.714Z,26.80
2023-03-29T14:44:22.624Z,27.90
2023-03-29T14:46:49.714Z,28.20
2023-03-29T14:49:18.824Z,28.30
2023-03-29T14:51:47.186Z,28.80
2023-03-29T14:54:23.159Z,28.40
2023-03-29T14:56:51.142Z,28.30
2023-03-29T14:59:27.698Z,28.60
2023-03-29T15:01:55.010Z,28.50
2023-03-29T15:04:22.238Z,28.20
2023-03-29T15:06:50.894Z,27.10
2023-03-29T15:09:27.144Z,26.70
2023-03-29T15:11:56.735Z,27.20
2023-03-29T15:14:27.080Z,26.20
2023-03-29T15:17:02.205Z,26.20
2023-03-29T15:19:29.623Z,25.90
2023-03-29T15:21:56.830Z,25.00
2023-03-29T15:24:33.190Z,25.30
2023-03-29T15:27:03.658Z,25.40
2023-03-29T15:29:36.378Z,25.50
2023-03-29T15:32:03.850Z,25.10
2023-03-29T15:34:33.359Z,25.30
2023-03-29T15:37:01.915Z,25.50
2023-03-29T15:39:29.969Z,24.50
2023-03-29T15:41:58.248Z,24.10
2023-03-29T15:44:32.434Z,24.20
2023-03-29T15:46:59.972Z,24.20
2023-03-29T15:49:27.269Z,25.70
2023-03-29T15:51:54.854Z,26.70
2023-03-29T15:54:22.835Z,27.00
2023-03-29T15:56:56.780Z,27.10
2023-03-29T15:59:23.927Z,26.70
2023-03-29T16:01:51.159Z,26.60
2023-03-29T16:04:20.003Z,26.00
2023-03-29T16:06:53.018Z,25.20
2023-03-29T16:09:21.613Z,25.20
2023-03-29T16:11:50.149Z,25.30
2023-03-29T16:14:25.533Z,25.70
2023-03-29T16:16:53.201Z,26.10
2023-03-29T16:19:22.362Z,26.60
2023-03-29T16:21:49.644Z,26.90
2023-03-29T16:24:19.736Z,27.10
2023-03-29T16:26:47.637Z,26.60
2023-03-29T16:29:17.290Z,26.40
2023-03-29T16:31:49.388Z,25.60
2023-03-29T16:34:18.878Z,26.10
2023-03-29T16:36:47.811Z,25.60
2023-03-29T16:39:15.249Z,26.10
2023-03-29T16:41:44.302Z,26.70
2023-03-29T16:44:17.124Z,27.20
2023-03-29T16:46:44.732Z,27.60
2023-03-29T16:49:18.492Z,27.20
2023-03-29T16:51:47.447Z,26.80
2023-03-29T16:54:15.294Z,27.60
2023-03-29T16:56:42.557Z,27.80
2023-03-29T16:59:09.723Z,27.60
2023-03-29T17:01:37.304Z,27.40
2023-03-29T17:04:04.985Z,27.70
2023-03-29T17:06:32.855Z,27.10
2023-03-29T17:09:00.830Z,26.60
2023-03-29T17:11:28.595Z,27.50
2023-03-29T17:13:55.928Z,27.00
2023-03-29T17:16:22.967Z,27.20
2023-03-29T17:18:50.101Z,27.30
2023-03-29T17:21:17.351Z,27.80
2023-03-29T17:23:44.556Z,27.80
2023-03-29T17:26:12.062Z,28.20
2023-03-29T17:28:39.152Z,28.90
2023-03-29T17:31:08.056Z,28.90
2023-03-29T17:33:36.330Z,28.20
2023-03-29T17:36:05.312Z,28.80
2023-03-29T17:38:34.325Z,29.00
2023-03-29T17:41:02.950Z,29.30
2023-03-29T17:43:30.464Z,29.40
2023-03-29T17:45:57.382Z,30.30
2023-03-29T17:48:24.777Z,30.30
2023-03-29T17:50:54.642Z,29.90
2023-03-29T17:53:21.614Z,29.80
2023-03-29T17:55:48.674Z,29.70
2023-03-29T17:58:16.440Z,29.80
2023-03-29T18:00:43.881Z,29.90
2023-03-29T18:03:11.312Z,29.60
2023-03-29T18:05:38.584Z,29.50
2023-03-29T18:08:05.952Z,29.30
2023-03-29T18:10:33.064Z,29.70
2023-03-29T18:13:00.684Z,29.40
2023-03-29T18:15:27.760Z,29.70
2023-03-29T18:17:54.907Z,30.30
2023-03-29T18:20:22.082Z,30.20
2023-03-29T18:22:49.749Z,30.00
2023-03-29T18:25:18.381Z,30.00
2023-03-29T18:27:45.537Z,29.70
2023-03-29T18:30:13.979Z,29.90
2023-03-29T18:32:41.279Z,30.10
2023-03-29T18:35:08.891Z,30.10
2023-03-29T18:37:36.439Z,29.70
2023-03-29T18:40:06.938Z,29.80
2023-03-29T18:42:34.086Z,29.90
2023-03-29T18:45:01.292Z,30.50
2023-03-29T18:47:29.157Z,30.50
2023-03-29T18:49:56.261Z,30.40
2023-03-29T18:52:23.690Z,30.20
2023-03-29T18:54:50.755Z,30.10
2023-03-29T18:57:17.943Z,30.80
2023-03-29T18:59:44.991Z,30.70
2023-03-29T19:02:12.261Z,30.80
2023-03-29T19:04:39.465Z,31.60
2023-03-29T19:07:06.880Z,31.70
2023-03-29T19:09:33.827Z,31.60
2023-03-29T19:12:00.842Z,31.50
2023-03-29T19:14:28.287Z,31.30
2023-03-29T19:16:55.649Z,31.80
2023-03-29T19:19:24.019Z,31.60
2023-03-29T19:21:51.149Z,31.10
2023-03-29T19:24:18.188Z,31.80
2023-03-29T19:26:45.867Z,31.70
2023-03-29T19:29:13.152Z,31.30
2023-03-29T19:31:40.407Z,31.40
2023-03-29T19:34:09.741Z,32.00
2023-03-29T19:36:37.436Z,32.30
2023-03-29T19:39:05.680Z,32.70
2023-03-29T19:41:32.792Z,32.60
2023-03-29T19:43:59.776Z,32.40
2023-03-29T19:46:28.377Z,32.20
2023-03-29T19:48:56.352Z,31.90
2023-03-29T19:51:23.731Z,31.50
2023-03-29T19:53:50.815Z,31.40
2023-03-29T19:56:17.965Z,30.70
2023-03-29T19:58:45.267Z,30.10
2023-03-29T20:01:12.497Z,30.60
2023-03-29T20:03:41.590Z,31.10
2023-03-29T20:06:10.725Z,31.30
2023-03-29T20:08:39.061Z,31.10
2023-03-29T20:11:10.713Z,31.50
2023-03-29T20:13:41.183Z,31.70
2023-03-29T20:16:15.023Z,31.10
2023-03-29T20:18:44.896Z,31.40
2023-03-29T20:21:17.015Z,31.10
2023-03-29T20:23:44.612Z,31.00
2023-03-29T20:26:11.653Z,31.40
2023-03-29T20:28:38.751Z,31.90
2023-03-29T20:31:07.815Z,32.40
2023-03-29T20:33:34.794Z,32.40
2023-03-29T20:36:02.022Z,33.00
2023-03-29T20:38:29.076Z,32.70
2023-03-29T20:40:56.387Z,32.70
2023-03-29T20:43:24.430Z,32.10
2023-03-29T20:45:53.778Z,32.60
2023-03-29T20:48:30.265Z,33.00
2023-03-29T20:50:57.855Z,32.00
2023-03-29T20:53:26.107Z,31.80
2023-03-29T20:55:53.167Z,31.40
2023-03-29T20:58:20.487Z,31.40
2023-03-29T21:00:48.468Z,31.30
2023-03-29T21:03:15.722Z,30.60
2023-03-29T21:05:43.593Z,30.60
2023-03-29T21:08:11.028Z,30.90
2023-03-29T21:10:37.967Z,31.00
2023-03-29T21:13:05.110Z,31.10
2023-03-29T21:15:33.246Z,31.30
2023-03-29T21:18:00.380Z,31.30
2023-03-29T21:20:27.781Z,31.10
2023-03-29T21:22:55.032Z,31.10
2023-03-29T21:25:22.337Z,31.30
2023-03-29T21:27:49.439Z,31.60
2023-03-29T21:30:16.697Z,32.00
2023-03-29T21:32:43.764Z,32.10
2023-03-29T21:35:11.443Z,32.70
2023-03-29T21:37:38.637Z,32.70
2023-03-29T21:40:07.091Z,33.30
2023-03-29T21:42:34.620Z,33.80
2023-03-29T21:45:02.077Z,34.10
2023-03-29T21:47:29.630Z,34.40
2023-03-29T21:49:56.712Z,34.20
2023-03-29T21:52:23.763Z,34.00
2023-03-29T21:54:51.058Z,34.00
2023-03-29T21:57:19.514Z,33.90
2023-03-29T21:59:46.623Z,34.20
2023-03-29T22:02:13.592Z,33.90
2023-03-29T22:04:40.757Z,33.80
2023-03-29T22:07:10.741Z,33.60
2023-03-29T22:09:37.852Z,33.90
2023-03-29T22:12:05.281Z,33.80
2023-03-29T22:14:35.258Z,34.00
2023-03-29T22:17:05.932Z,34.10
2023-03-29T22:19:39.223Z,34.20
2023-03-29T22:22:13.721Z,34.10
2023-03-29T22:24:42.200Z,34.10
2023-03-29T22:27:09.716Z,34.20
2023-03-29T22:29:36.679Z,34.00
2023-03-29T22:32:03.950Z,33.50
2023-03-29T22:34:31.466Z,33.60
2023-03-29T22:36:58.411Z,33.50
2023-03-29T22:39:25.450Z,33.70
2023-03-29T22:41:52.615Z,33.90
2023-03-29T22:44:19.742Z,33.70
2023-03-29T22:46:47.005Z,33.80
2023-03-29T22:49:13.957Z,33.70
2023-03-29T22:51:40.964Z,33.50
2023-03-29T22:54:08.505Z,33.90
2023-03-29T22:56:35.766Z,33.80
2023-03-29T22:59:02.826Z,33.90
2023-03-29T23:01:29.936Z,34.40
2023-03-29T23:03:56.895Z,34.50
2023-03-29T23:06:24.041Z,34.70
2023-03-29T23:08:51.354Z,33.90
2023-03-29T23:11:18.353Z,34.10
2023-03-29T23:13:48.986Z,34.20
2023-03-29T23:16:17.046Z,34.50
2023-03-29T23:18:44.235Z,34.50
2023-03-29T23:21:11.195Z,34.70
2023-03-29T23:23:38.702Z,34.60
2023-03-29T23:26:06.649Z,34.50
2023-03-29T23:28:34.813Z,34.50
2023-03-29T23:31:09.975Z,34.50
2023-03-29T23:33:40.653Z,34.50
2023-03-29T23:36:11.229Z,34.30
2023-03-29T23:38:39.765Z,34.10
2023-03-29T23:41:10.482Z,34.00
2023-03-29T23:43:42.699Z,33.90
2023-03-29T23:46:15.633Z,33.90
2023-03-29T23:48:47.325Z,33.90
2023-03-29T23:51:14.644Z,33.90
2023-03-29T23:53:41.627Z,34.00
2023-03-29T23:56:09.255Z,33.80
2023-03-29T23:58:38.061Z,33.60
